Terminal Aerodrome Forecast
Issued by NWS Charleston, WV

Home | Current Version | Previous Version | Text Only | Print | Product List | Glossary On
Versions: 1 2 3 4 5 6 7 8 9 10 11 12 13 14 15 16 17 18 19 20 21 22
112
FTUS41 KRLX 271737
TAFHTS
TAF
KHTS 271737Z 2718/2818 VRB04KT P6SM VCSH SCT022 SCT050
     FM271900 19005KT P6SM BKN050
     FM280600 00000KT 3SM BR SCT070
     FM280700 00000KT 1 1/2SM BR SCT070
     FM280800 00000KT 1/2SM FG VV001
     FM281230 00000KT 4SM BR SCT002
     FM281300 00000KT P6SM SCT200=

USA.gov is the U.S. government's official web portal to all federal, state and local government web resources and services.